sensor_id;sensor_type;location;lat;lon;timestamp;pressure;altitude;pressure_sealevel;temperature;humidity
69245;BME280;56357;52.304;4.870;2022-09-13T00:00:39;101230.94;;;22.84;nan
69245;BME280;56357;52.304;4.870;2022-09-13T00:03:06;101232.59;;;22.85;nan
69245;BME280;56357;52.304;4.870;2022-09-13T00:05:34;101244.50;;;22.82;nan
69245;BME280;56357;52.304;4.870;2022-09-13T00:08:00;101248.16;;;22.83;nan
69245;BME280;56357;52.304;4.870;2022-09-13T00:10:27;101239.13;;;22.81;nan
69245;BME280;56357;52.304;4.870;2022-09-13T00:12:53;101252.13;;;22.82;nan
69245;BME280;56357;52.304;4.870;2022-09-13T00:15:20;101250.75;;;22.79;nan
69245;BME280;56357;52.304;4.870;2022-09-13T00:17:47;101244.78;;;22.81;nan
69245;BME280;56357;52.304;4.870;2022-09-13T00:20:13;101243.13;;;22.80;nan
69245;BME280;56357;52.304;4.870;2022-09-13T00:22:39;101243.13;;;22.80;nan
69245;BME280;56357;52.304;4.870;2022-09-13T00:25:06;101239.44;;;22.79;nan
69245;BME280;56357;52.304;4.870;2022-09-13T00:27:34;101238.91;;;22.77;nan
69245;BME280;56357;52.304;4.870;2022-09-13T00:30:01;101238.91;;;22.77;nan
69245;BME280;56357;52.304;4.870;2022-09-13T00:32:27;101224.78;;;22.77;nan
69245;BME280;56357;52.304;4.870;2022-09-13T00:34:54;101220.97;;;22.68;nan
69245;BME280;56357;52.304;4.870;2022-09-13T00:37:20;101230.53;;;22.72;nan
69245;BME280;56357;52.304;4.870;2022-09-13T00:39:47;101226.53;;;22.73;nan
69245;BME280;56357;52.304;4.870;2022-09-13T00:42:14;101228.00;;;22.70;nan
69245;BME280;56357;52.304;4.870;2022-09-13T00:47:55;101212.50;;;22.68;nan
69245;BME280;56357;52.304;4.870;2022-09-13T00:50:33;101219.81;;;22.69;nan
69245;BME280;56357;52.304;4.870;2022-09-13T00:53:11;101222.34;;;22.70;nan
69245;BME280;56357;52.304;4.870;2022-09-13T00:58:12;101220.13;;;22.67;nan
69245;BME280;56357;52.304;4.870;2022-09-13T01:00:41;101223.78;;;22.68;nan
69245;BME280;56357;52.304;4.870;2022-09-13T01:03:11;101220.44;;;22.66;nan
69245;BME280;56357;52.304;4.870;2022-09-13T01:05:45;101216.44;;;22.67;nan
69245;BME280;56357;52.304;4.870;2022-09-13T01:08:14;101220.75;;;22.64;nan
69245;BME280;56357;52.304;4.870;2022-09-13T01:10:47;101222.72;;;22.64;nan
69245;BME280;56357;52.304;4.870;2022-09-13T01:13:18;101224.69;;;22.63;nan
69245;BME280;56357;52.304;4.870;2022-09-13T01:15:46;101219.59;;;22.65;nan
69245;BME280;56357;52.304;4.870;2022-09-13T01:18:13;101216.22;;;22.63;nan
69245;BME280;56357;52.304;4.870;2022-09-13T01:20:53;101227.50;;;22.63;nan
69245;BME280;56357;52.304;4.870;2022-09-13T01:30:12;101217.06;;;22.64;nan
69245;BME280;56357;52.304;4.870;2022-09-13T01:33:00;101204.69;;;22.60;nan
69245;BME280;56357;52.304;4.870;2022-09-13T01:38:51;101211.19;;;22.60;nan
69245;BME280;56357;52.304;4.870;2022-09-13T01:42:02;101205.22;;;22.62;nan
69245;BME280;56357;52.304;4.870;2022-09-13T01:44:49;101205.31;;;22.57;nan
69245;BME280;56357;52.304;4.870;2022-09-13T01:47:29;101200.22;;;22.54;nan
69245;BME280;56357;52.304;4.870;2022-09-13T01:50:25;101197.38;;;22.59;nan
69245;BME280;56357;52.304;4.870;2022-09-13T01:53:00;101204.16;;;22.58;nan
69245;BME280;56357;52.304;4.870;2022-09-13T01:55:38;101202.19;;;22.58;nan
69245;BME280;56357;52.304;4.870;2022-09-13T02:00:42;101202.19;;;22.58;nan
69245;BME280;56357;52.304;4.870;2022-09-13T02:03:33;101205.00;;;22.58;nan
69245;BME280;56357;52.304;4.870;2022-09-13T02:06:07;101201.34;;;22.58;nan
69245;BME280;56357;52.304;4.870;2022-09-13T02:08:48;101191.22;;;22.52;nan
69245;BME280;56357;52.304;4.870;2022-09-13T02:11:17;101193.72;;;22.53;nan
69245;BME280;56357;52.304;4.870;2022-09-13T02:13:59;101196.28;;;22.55;nan
69245;BME280;56357;52.304;4.870;2022-09-13T02:16:38;101193.22;;;22.51;nan
69245;BME280;56357;52.304;4.870;2022-09-13T02:19:10;101183.91;;;22.51;nan
69245;BME280;56357;52.304;4.870;2022-09-13T02:21:41;101187.03;;;22.49;nan
69245;BME280;56357;52.304;4.870;2022-09-13T02:24:22;101190.91;;;22.53;nan
69245;BME280;56357;52.304;4.870;2022-09-13T02:26:52;101186.41;;;22.52;nan
69245;BME280;56357;52.304;4.870;2022-09-13T02:29:23;101188.69;;;22.50;nan
69245;BME280;56357;52.304;4.870;2022-09-13T02:31:55;101193.25;;;22.46;nan
69245;BME280;56357;52.304;4.870;2022-09-13T02:34:31;101194.66;;;22.49;nan
69245;BME280;56357;52.304;4.870;2022-09-13T02:37:00;101195.25;;;22.46;nan
69245;BME280;56357;52.304;4.870;2022-09-13T02:39:28;101193.56;;;22.45;nan
69245;BME280;56357;52.304;4.870;2022-09-13T02:44:52;101195.31;;;22.41;nan
69245;BME280;56357;52.304;4.870;2022-09-13T02:47:35;101188.25;;;22.43;nan
69245;BME280;56357;52.304;4.870;2022-09-13T02:53:24;101185.22;;;22.35;nan
69245;BME280;56357;52.304;4.870;2022-09-13T02:56:29;101194.25;;;22.37;nan
69245;BME280;56357;52.304;4.870;2022-09-13T02:59:09;101185.22;;;22.35;nan
69245;BME280;56357;52.304;4.870;2022-09-13T03:01:39;101182.94;;;22.37;nan
69245;BME280;56357;52.304;4.870;2022-09-13T03:04:07;101178.50;;;22.31;nan
69245;BME280;56357;52.304;4.870;2022-09-13T03:06:33;101186.38;;;22.34;nan
69245;BME280;56357;52.304;4.870;2022-09-13T03:09:02;101191.50;;;22.32;nan
69245;BME280;56357;52.304;4.870;2022-09-13T03:14:32;101198.81;;;22.33;nan
69245;BME280;56357;52.304;4.870;2022-09-13T03:30:25;101194.91;;;22.29;nan
69245;BME280;56357;52.304;4.870;2022-09-13T03:35:52;101192.81;;;22.16;nan
69245;BME280;56357;52.304;4.870;2022-09-13T03:38:25;101187.34;;;22.24;nan
69245;BME280;56357;52.304;4.870;2022-09-13T03:41:09;101186.75;;;22.27;nan
69245;BME280;56357;52.304;4.870;2022-09-13T03:43:40;101183.13;;;22.22;nan
69245;BME280;56357;52.304;4.870;2022-09-13T03:46:17;101184.81;;;22.23;nan
69245;BME280;56357;52.304;4.870;2022-09-13T03:48:46;101188.16;;;22.25;nan
69245;BME280;56357;52.304;4.870;2022-09-13T03:51:13;101180.31;;;22.22;nan
69245;BME280;56357;52.304;4.870;2022-09-13T03:53:45;101177.25;;;22.18;nan
69245;BME280;56357;52.304;4.870;2022-09-13T03:56:14;101191.06;;;22.20;nan
69245;BME280;56357;52.304;4.870;2022-09-13T03:58:40;101196.16;;;22.18;nan
69245;BME280;56357;52.304;4.870;2022-09-13T04:01:08;101196.16;;;22.18;nan
69245;BME280;56357;52.304;4.870;2022-09-13T04:03:38;101189.66;;;22.17;nan
69245;BME280;56357;52.304;4.870;2022-09-13T04:06:05;101190.28;;;22.14;nan
69245;BME280;56357;52.304;4.870;2022-09-13T04:08:32;101206.91;;;22.16;nan
69245;BME280;56357;52.304;4.870;2022-09-13T04:10:59;101199.06;;;22.13;nan
69245;BME280;56357;52.304;4.870;2022-09-13T04:13:25;101197.66;;;22.10;nan
69245;BME280;56357;52.304;4.870;2022-09-13T04:15:52;101205.03;;;22.06;nan
69245;BME280;56357;52.304;4.870;2022-09-13T04:18:19;101197.47;;;22.02;nan
69245;BME280;56357;52.304;4.870;2022-09-13T04:20:56;101205.34;;;22.05;nan
69245;BME280;56357;52.304;4.870;2022-09-13T04:23:23;101199.16;;;22.03;nan
69245;BME280;56357;52.304;4.870;2022-09-13T04:25:50;101193.22;;;22.04;nan
69245;BME280;56357;52.304;4.870;2022-09-13T04:28:17;101197.44;;;22.07;nan
69245;BME280;56357;52.304;4.870;2022-09-13T04:30:44;101194.06;;;22.05;nan
69245;BME280;56357;52.304;4.870;2022-09-13T04:33:11;101188.41;;;22.05;nan
69245;BME280;56357;52.304;4.870;2022-09-13T04:35:38;101212.38;;;22.07;nan
69245;BME280;56357;52.304;4.870;2022-09-13T04:38:06;101210.38;;;22.08;nan
69245;BME280;56357;52.304;4.870;2022-09-13T04:40:33;101205.03;;;22.06;nan
69245;BME280;56357;52.304;4.870;2022-09-13T04:43:00;101199.41;;;22.06;nan
69245;BME280;56357;52.304;4.870;2022-09-13T04:45:27;101198.22;;;22.12;nan
69245;BME280;56357;52.304;4.870;2022-09-13T04:47:54;101207.53;;;22.13;nan
69245;BME280;56357;52.304;4.870;2022-09-13T04:50:22;101209.19;;;22.14;nan
69245;BME280;56357;52.304;4.870;2022-09-13T04:52:50;101210.63;;;22.11;nan
69245;BME280;56357;52.304;4.870;2022-09-13T04:55:19;101212.53;;;22.16;nan
69245;BME280;56357;52.304;4.870;2022-09-13T04:57:45;101210.75;;;22.25;nan
69245;BME280;56357;52.304;4.870;2022-09-13T05:00:12;101200.69;;;22.19;nan
69245;BME280;56357;52.304;4.870;2022-09-13T05:02:38;101214.78;;;22.19;nan
69245;BME280;56357;52.304;4.870;2022-09-13T05:05:05;101221.47;;;22.23;nan
69245;BME280;56357;52.304;4.870;2022-09-13T05:07:32;101224.38;;;22.18;nan
69245;BME280;56357;52.304;4.870;2022-09-13T05:09:59;101211.69;;;22.15;nan
69245;BME280;56357;52.304;4.870;2022-09-13T05:12:25;101224.25;;;22.28;nan
69245;BME280;56357;52.304;4.870;2022-09-13T05:14:51;101211.66;;;22.20;nan
69245;BME280;56357;52.304;4.870;2022-09-13T05:17:18;101229.38;;;22.26;nan
69245;BME280;56357;52.304;4.870;2022-09-13T05:19:45;101236.09;;;22.30;nan
69245;BME280;56357;52.304;4.870;2022-09-13T05:22:12;101231.03;;;22.27;nan
69245;BME280;56357;52.304;4.870;2022-09-13T05:24:38;101233.31;;;22.25;nan
69245;BME280;56357;52.304;4.870;2022-09-13T05:27:04;101233.31;;;22.25;nan
69245;BME280;56357;52.304;4.870;2022-09-13T05:29:31;101237.84;;;22.26;nan
69245;BME280;56357;52.304;4.870;2022-09-13T05:31:57;101243.72;;;22.29;nan
69245;BME280;56357;52.304;4.870;2022-09-13T05:34:23;101240.59;;;22.31;nan
69245;BME280;56357;52.304;4.870;2022-09-13T05:36:49;101246.47;;;22.34;nan
69245;BME280;56357;52.304;4.870;2022-09-13T05:39:16;101257.72;;;22.39;nan
69245;BME280;56357;52.304;4.870;2022-09-13T05:41:43;101256.00;;;22.38;nan
69245;BME280;56357;52.304;4.870;2022-09-13T05:44:10;101258.19;;;22.46;nan
69245;BME280;56357;52.304;4.870;2022-09-13T05:46:36;101258.50;;;22.45;nan
69245;BME280;56357;52.304;4.870;2022-09-13T05:49:02;101250.91;;;22.40;nan
69245;BME280;56357;52.304;4.870;2022-09-13T05:51:29;101265.81;;;22.46;nan
69245;BME280;56357;52.304;4.870;2022-09-13T05:53:57;101266.31;;;22.53;nan
69245;BME280;56357;52.304;4.870;2022-09-13T05:56:26;101269.13;;;22.53;nan
69245;BME280;56357;52.304;4.870;2022-09-13T05:58:52;101279.25;;;22.59;nan
69245;BME280;56357;52.304;4.870;2022-09-13T06:01:21;101276.44;;;22.54;nan
69245;BME280;56357;52.304;4.870;2022-09-13T06:03:54;101274.47;;;22.54;nan
69245;BME280;56357;52.304;4.870;2022-09-13T06:06:22;101276.44;;;22.54;nan
69245;BME280;56357;52.304;4.870;2022-09-13T06:08:55;101277.56;;;22.58;nan
69245;BME280;56357;52.304;4.870;2022-09-13T06:11:23;101273.59;;;22.59;nan
69245;BME280;56357;52.304;4.870;2022-09-13T06:13:50;101271.59;;;22.59;nan
69245;BME280;56357;52.304;4.870;2022-09-13T06:16:17;101265.28;;;22.67;nan
69245;BME280;56357;52.304;4.870;2022-09-13T06:18:44;101266.72;;;22.65;nan
69245;BME280;56357;52.304;4.870;2022-09-13T06:21:19;101270.78;;;22.59;nan
69245;BME280;56357;52.304;4.870;2022-09-13T06:23:48;101269.66;;;22.55;nan
69245;BME280;56357;52.304;4.870;2022-09-13T06:26:17;101280.06;;;22.59;nan
69245;BME280;56357;52.304;4.870;2022-09-13T06:28:48;101286.88;;;22.58;nan
69245;BME280;56357;52.304;4.870;2022-09-13T06:31:16;101282.06;;;22.59;nan
69245;BME280;56357;52.304;4.870;2022-09-13T06:33:44;101293.06;;;22.60;nan
69245;BME280;56357;52.304;4.870;2022-09-13T06:36:15;101282.31;;;22.62;nan
69245;BME280;56357;52.304;4.870;2022-09-13T06:38:44;101281.69;;;22.65;nan
69245;BME280;56357;52.304;4.870;2022-09-13T06:41:13;101271.19;;;22.71;nan
69245;BME280;56357;52.304;4.870;2022-09-13T06:43:40;101272.88;;;22.72;nan
69245;BME280;56357;52.304;4.870;2022-09-13T06:46:11;101274.84;;;22.71;nan
69245;BME280;56357;52.304;4.870;2022-09-13T06:48:40;101280.19;;;22.73;nan
69245;BME280;56357;52.304;4.870;2022-09-13T06:51:10;101276.47;;;22.78;nan
69245;BME280;56357;52.304;4.870;2022-09-13T06:53:37;101275.56;;;22.82;nan
69245;BME280;56357;52.304;4.870;2022-09-13T06:56:05;101281.44;;;22.86;nan
69245;BME280;56357;52.304;4.870;2022-09-13T06:58:33;101268.53;;;22.80;nan
69245;BME280;56357;52.304;4.870;2022-09-13T07:01:07;101266.47;;;22.85;nan
69245;BME280;56357;52.304;4.870;2022-09-13T07:03:35;101270.16;;;22.86;nan
69245;BME280;56357;52.304;4.870;2022-09-13T07:06:13;101270.97;;;22.86;nan
69245;BME280;56357;52.304;4.870;2022-09-13T07:08:41;101273.13;;;22.94;nan
69245;BME280;56357;52.304;4.870;2022-09-13T07:11:10;101274.75;;;23.00;nan
69245;BME280;56357;52.304;4.870;2022-09-13T07:13:37;101273.31;;;23.03;nan
69245;BME280;56357;52.304;4.870;2022-09-13T07:16:09;101280.34;;;23.05;nan
69245;BME280;56357;52.304;4.870;2022-09-13T07:18:36;101278.56;;;23.09;nan
69245;BME280;56357;52.304;4.870;2022-09-13T07:21:08;101274.06;;;23.08;nan
69245;BME280;56357;52.304;4.870;2022-09-13T07:23:37;101258.88;;;23.04;nan
69245;BME280;56357;52.304;4.870;2022-09-13T07:26:06;101273.75;;;23.10;nan
69245;BME280;56357;52.304;4.870;2022-09-13T07:28:41;101275.16;;;23.12;nan
69245;BME280;56357;52.304;4.870;2022-09-13T07:31:18;101265.69;;;23.22;nan
69245;BME280;56357;52.304;4.870;2022-09-13T07:33:46;101251.91;;;23.15;nan
69245;BME280;56357;52.304;4.870;2022-09-13T07:36:13;101279.59;;;23.18;nan
69245;BME280;56357;52.304;4.870;2022-09-13T07:38:41;101278.97;;;23.21;nan
69245;BME280;56357;52.304;4.870;2022-09-13T07:41:11;101279.41;;;23.28;nan
69245;BME280;56357;52.304;4.870;2022-09-13T07:43:38;101282.00;;;23.25;nan
69245;BME280;56357;52.304;4.870;2022-09-13T07:46:12;101285.38;;;23.27;nan
69245;BME280;56357;52.304;4.870;2022-09-13T07:48:41;101292.91;;;23.36;nan
69245;BME280;56357;52.304;4.870;2022-09-13T07:51:10;101301.31;;;23.41;nan
69245;BME280;56357;52.304;4.870;2022-09-13T07:53:38;101295.94;;;23.40;nan
69245;BME280;56357;52.304;4.870;2022-09-13T07:56:10;101291.81;;;23.32;nan
69245;BME280;56357;52.304;4.870;2022-09-13T07:58:39;101299.63;;;23.40;nan
69245;BME280;56357;52.304;4.870;2022-09-13T08:03:39;101287.25;;;23.36;nan
69245;BME280;56357;52.304;4.870;2022-09-13T08:06:06;101302.63;;;23.49;nan
69245;BME280;56357;52.304;4.870;2022-09-13T08:08:34;101301.13;;;23.51;nan
69245;BME280;56357;52.304;4.870;2022-09-13T08:11:02;101306.31;;;23.63;nan
69245;BME280;56357;52.304;4.870;2022-09-13T08:13:28;101292.50;;;23.61;nan
69245;BME280;56357;52.304;4.870;2022-09-13T08:16:00;101297.72;;;23.54;nan
69245;BME280;56357;52.304;4.870;2022-09-13T08:18:26;101306.78;;;23.51;nan
69245;BME280;56357;52.304;4.870;2022-09-13T08:20:57;101303.53;;;23.44;nan
69245;BME280;56357;52.304;4.870;2022-09-13T08:23:24;101309.50;;;23.43;nan
69245;BME280;56357;52.304;4.870;2022-09-13T08:25:51;101311.47;;;23.42;nan
69245;BME280;56357;52.304;4.870;2022-09-13T08:28:20;101318.63;;;23.53;nan
69245;BME280;56357;52.304;4.870;2022-09-13T08:30:47;101313.25;;;23.57;nan
69245;BME280;56357;52.304;4.870;2022-09-13T08:33:14;101305.50;;;23.44;nan
69245;BME280;56357;52.304;4.870;2022-09-13T08:35:40;101310.41;;;23.57;nan
69245;BME280;56357;52.304;4.870;2022-09-13T08:38:14;101310.09;;;23.58;nan
69245;BME280;56357;52.304;4.870;2022-09-13T08:40:43;101316.34;;;23.74;nan
69245;BME280;56357;52.304;4.870;2022-09-13T08:43:34;101318.06;;;23.89;nan
69245;BME280;56357;52.304;4.870;2022-09-13T08:46:13;101314.41;;;23.88;nan
69245;BME280;56357;52.304;4.870;2022-09-13T08:48:44;101308.75;;;23.88;nan
69245;BME280;56357;52.304;4.870;2022-09-13T08:51:29;101309.47;;;23.80;nan
69245;BME280;56357;52.304;4.870;2022-09-13T08:53:56;101313.59;;;23.88;nan
69245;BME280;56357;52.304;4.870;2022-09-13T08:56:31;101320.31;;;23.92;nan
69245;BME280;56357;52.304;4.870;2022-09-13T08:59:02;101324.59;;;23.89;nan
69245;BME280;56357;52.304;4.870;2022-09-13T09:04:35;101328.06;;;24.00;nan
69245;BME280;56357;52.304;4.870;2022-09-13T09:12:32;101323.88;;;24.16;nan
69245;BME280;56357;52.304;4.870;2022-09-13T09:15:12;101324.22;;;24.28;nan
69245;BME280;56357;52.304;4.870;2022-09-13T09:20:48;101314.44;;;24.20;nan
69245;BME280;56357;52.304;4.870;2022-09-13T09:23:21;101329.34;;;24.26;nan
69245;BME280;56357;52.304;4.870;2022-09-13T09:26:18;101336.06;;;24.30;nan
69245;BME280;56357;52.304;4.870;2022-09-13T09:28:49;101336.16;;;24.25;nan
69245;BME280;56357;52.304;4.870;2022-09-13T09:31:24;101323.53;;;24.17;nan
69245;BME280;56357;52.304;4.870;2022-09-13T09:36:41;101327.47;;;24.35;nan
69245;BME280;56357;52.304;4.870;2022-09-13T09:39:12;101323.28;;;24.46;nan
69245;BME280;56357;52.304;4.870;2022-09-13T09:41:41;101329.63;;;24.57;nan
69245;BME280;56357;52.304;4.870;2022-09-13T09:44:22;101324.47;;;24.59;nan
69245;BME280;56357;52.304;4.870;2022-09-13T09:46:54;101324.56;;;24.67;nan
69245;BME280;56357;52.304;4.870;2022-09-13T09:52:17;101319.56;;;24.64;nan
69245;BME280;56357;52.304;4.870;2022-09-13T09:54:48;101321.22;;;24.65;nan
69245;BME280;56357;52.304;4.870;2022-09-13T09:57:14;101313.44;;;24.71;nan
69245;BME280;56357;52.304;4.870;2022-09-13T09:59:44;101312.56;;;24.75;nan
69245;BME280;56357;52.304;4.870;2022-09-13T10:02:20;101312.63;;;24.70;nan
69245;BME280;56357;52.304;4.870;2022-09-13T10:04:58;101306.88;;;24.75;nan
69245;BME280;56357;52.304;4.870;2022-09-13T10:07:30;101310.25;;;24.77;nan
69245;BME280;56357;52.304;4.870;2022-09-13T10:10:02;101306.25;;;24.78;nan
69245;BME280;56357;52.304;4.870;2022-09-13T10:12:32;101311.28;;;24.81;nan
69245;BME280;56357;52.304;4.870;2022-09-13T10:15:19;101310.13;;;24.82;nan
69245;BME280;56357;52.304;4.870;2022-09-13T10:18:16;101310.97;;;24.83;nan
69245;BME280;56357;52.304;4.870;2022-09-13T10:23:34;101302.16;;;24.84;nan
69245;BME280;56357;52.304;4.870;2022-09-13T10:28:34;101301.53;;;24.87;nan
69245;BME280;56357;52.304;4.870;2022-09-13T10:31:06;101308.06;;;24.88;nan
69245;BME280;56357;52.304;4.870;2022-09-13T10:33:43;101298.19;;;24.85;nan
69245;BME280;56357;52.304;4.870;2022-09-13T10:38:40;101302.16;;;24.84;nan
69245;BME280;56357;52.304;4.870;2022-09-13T10:41:20;101300.69;;;24.87;nan
69245;BME280;56357;52.304;4.870;2022-09-13T10:43:55;101310.56;;;24.89;nan
69245;BME280;56357;52.304;4.870;2022-09-13T10:46:22;101314.97;;;24.95;nan
69245;BME280;56357;52.304;4.870;2022-09-13T10:48:49;101309.31;;;24.95;nan
69245;BME280;56357;52.304;4.870;2022-09-13T10:51:27;101315.59;;;24.92;nan
69245;BME280;56357;52.304;4.870;2022-09-13T10:54:16;101307.00;;;24.97;nan
69245;BME280;56357;52.304;4.870;2022-09-13T10:56:43;101317.03;;;25.03;nan
69245;BME280;56357;52.304;4.870;2022-09-13T10:59:28;101314.53;;;25.02;nan
69245;BME280;56357;52.304;4.870;2022-09-13T11:11:14;101297.97;;;24.95;nan
69245;BME280;56357;52.304;4.870;2022-09-13T11:13:27;101295.53;;;25.02;nan
69245;BME280;56357;52.304;4.870;2022-09-13T11:19:11;101280.13;;;24.95;nan
69245;BME280;56357;52.304;4.870;2022-09-13T11:26:56;101280.13;;;24.95;nan
69245;BME280;56357;52.304;4.870;2022-09-13T11:32:23;101292.72;;;25.02;nan
69245;BME280;56357;52.304;4.870;2022-09-13T11:40:01;101276.31;;;24.99;nan
69245;BME280;56357;52.304;4.870;2022-09-13T11:42:40;101269.50;;;25.00;nan
69245;BME280;56357;52.304;4.870;2022-09-13T11:45:26;101265.81;;;25.00;nan
69245;BME280;56357;52.304;4.870;2022-09-13T11:48:13;101288.69;;;25.03;nan
69245;BME280;56357;52.304;4.870;2022-09-13T11:53:53;101278.44;;;24.94;nan
69245;BME280;56357;52.304;4.870;2022-09-13T11:56:35;101268.38;;;24.88;nan
69245;BME280;56357;52.304;4.870;2022-09-13T12:01:52;101268.47;;;24.83;nan
69245;BME280;56357;52.304;4.870;2022-09-13T12:04:27;101267.94;;;24.81;nan
69245;BME280;56357;52.304;4.870;2022-09-13T12:07:00;101264.19;;;24.72;nan
69245;BME280;56357;52.304;4.870;2022-09-13T12:09:32;101278.03;;;24.87;nan
69245;BME280;56357;52.304;4.870;2022-09-13T12:12:06;101279.28;;;24.94;nan
69245;BME280;56357;52.304;4.870;2022-09-13T12:14:56;101282.50;;;25.01;nan
69245;BME280;56357;52.304;4.870;2022-09-13T12:19:59;101274.25;;;25.05;nan
69245;BME280;56357;52.304;4.870;2022-09-13T12:22:29;101281.44;;;25.11;nan
69245;BME280;56357;52.304;4.870;2022-09-13T12:25:02;101278.31;;;25.12;nan
69245;BME280;56357;52.304;4.870;2022-09-13T12:27:46;101275.34;;;25.17;nan
69245;BME280;56357;52.304;4.870;2022-09-13T12:30:17;101278.59;;;25.11;nan
69245;BME280;56357;52.304;4.870;2022-09-13T12:32:45;101279.44;;;25.11;nan
69245;BME280;56357;52.304;4.870;2022-09-13T12:35:18;101290.38;;;25.18;nan
69245;BME280;56357;52.304;4.870;2022-09-13T12:40:48;101287.22;;;25.19;nan
69245;BME280;56357;52.304;4.870;2022-09-13T12:43:41;101290.56;;;25.21;nan
69245;BME280;56357;52.304;4.870;2022-09-13T12:52:29;101279.66;;;25.15;nan
69245;BME280;56357;52.304;4.870;2022-09-13T12:55:32;101276.91;;;25.23;nan
69245;BME280;56357;52.304;4.870;2022-09-13T13:01:14;101277.44;;;25.39;nan
69245;BME280;56357;52.304;4.870;2022-09-13T13:03:58;101271.53;;;25.49;nan
69245;BME280;56357;52.304;4.870;2022-09-13T13:06:37;101270.59;;;25.40;nan
69245;BME280;56357;52.304;4.870;2022-09-13T13:11:49;101274.16;;;25.32;nan
69245;BME280;56357;52.304;4.870;2022-09-13T13:20:00;101259.25;;;25.26;nan
69245;BME280;56357;52.304;4.870;2022-09-13T13:25:36;101265.44;;;25.28;nan
69245;BME280;56357;52.304;4.870;2022-09-13T13:39:11;101271.34;;;25.68;nan
69245;BME280;56357;52.304;4.870;2022-09-13T13:41:43;101267.72;;;25.76;nan
69245;BME280;56357;52.304;4.870;2022-09-13T13:46:43;101274.13;;;25.81;nan
69245;BME280;56357;52.304;4.870;2022-09-13T14:07:57;101275.84;;;25.91;
69245;BME280;56357;52.304;4.870;2022-09-13T14:19:22;101251.81;;;26.10;nan
69245;BME280;56357;52.304;4.870;2022-09-13T14:22:23;101258.63;;;26.09;nan
69245;BME280;56357;52.304;4.870;2022-09-13T14:27:47;101261.03;;;26.16;nan
69245;BME280;56357;52.304;4.870;2022-09-13T14:30:31;101263.78;;;26.07;nan
69245;BME280;56357;52.304;4.870;2022-09-13T14:32:59;101275.72;;;26.18;nan
69245;BME280;56357;52.304;4.870;2022-09-13T14:35:35;101263.59;;;26.26;nan
69245;BME280;56357;52.304;4.870;2022-09-13T14:38:26;101259.06;;;26.25;nan
69245;BME280;56357;52.304;4.870;2022-09-13T14:40:59;101265.47;;;26.39;nan
69245;BME280;56357;52.304;4.870;2022-09-13T14:43:28;101271.69;;;26.41;nan
69245;BME280;56357;52.304;4.870;2022-09-13T14:46:09;101279.41;;;26.49;nan
69245;BME280;56357;52.304;4.870;2022-09-13T14:48:40;101271.75;;;26.58;nan
69245;BME280;56357;52.304;4.870;2022-09-13T14:51:21;101276.91;;;26.56;nan
69245;BME280;56357;52.304;4.870;2022-09-13T14:53:52;101270.69;;;26.46;nan
69245;BME280;56357;52.304;4.870;2022-09-13T14:56:53;101266.50;;;26.43;nan
69245;BME280;56357;52.304;4.870;2022-09-13T14:59:30;101274.63;;;26.36;nan
69245;BME280;56357;52.304;4.870;2022-09-13T15:02:04;101277.38;;;26.19;nan
69245;BME280;56357;52.304;4.870;2022-09-13T15:04:32;101268.41;;;26.25;nan
69245;BME280;56357;52.304;4.870;2022-09-13T15:07:19;101278.78;;;26.30;nan
69245;BME280;56357;52.304;4.870;2022-09-13T15:09:46;101274.09;;;26.25;nan
69245;BME280;56357;52.304;4.870;2022-09-13T15:12:27;101271.53;;;26.15;nan
69245;BME280;56357;52.304;4.870;2022-09-13T15:17:57;101272.72;;;26.14;nan
69245;BME280;56357;52.304;4.870;2022-09-13T15:23:30;101262.59;;;26.31;nan
69245;BME280;56357;52.304;4.870;2022-09-13T15:31:06;101252.16;;;26.48;nan
69245;BME280;56357;52.304;4.870;2022-09-13T15:33:34;101260.50;;;26.53;nan
69245;BME280;56357;52.304;4.870;2022-09-13T15:38:56;101252.50;;;26.55;nan
69245;BME280;56357;52.304;4.870;2022-09-13T15:41:27;101248.34;;;26.53;nan
69245;BME280;56357;52.304;4.870;2022-09-13T15:43:55;101255.22;;;26.60;nan
69245;BME280;56357;52.304;4.870;2022-09-13T15:46:22;101260.63;;;26.70;nan
69245;BME280;56357;52.304;4.870;2022-09-13T15:48:53;101254.53;;;26.63;nan
69245;BME280;56357;52.304;4.870;2022-09-13T15:51:20;101252.81;;;26.45;nan
69245;BME280;56357;52.304;4.870;2022-09-13T15:53:47;101266.34;;;26.48;nan
69245;BME280;56357;52.304;4.870;2022-09-13T15:56:19;101249.78;;;26.42;nan
69245;BME280;56357;52.304;4.870;2022-09-13T15:58:46;101256.72;;;26.27;nan
69245;BME280;56357;52.304;4.870;2022-09-13T16:01:14;101248.91;;;26.33;nan
69245;BME280;56357;52.304;4.870;2022-09-13T16:03:41;101247.53;;;26.30;nan
69245;BME280;56357;52.304;4.870;2022-09-13T16:06:08;101247.31;;;26.96;nan
69245;BME280;56357;52.304;4.870;2022-09-13T16:08:35;101245.28;;;26.88;nan
69245;BME280;56357;52.304;4.870;2022-09-13T16:11:02;101247.53;;;26.30;nan
69245;BME280;56357;52.304;4.870;2022-09-13T16:13:29;101246.81;;;26.16;nan
69245;BME280;56357;52.304;4.870;2022-09-13T16:15:56;101249.66;;;26.16;nan
69245;BME280;56357;52.304;4.870;2022-09-13T16:18:23;101248.16;;;26.49;nan
69245;BME280;56357;52.304;4.870;2022-09-13T16:20:50;101235.00;;;27.86;nan
69245;BME280;56357;52.304;4.870;2022-09-13T16:23:16;101237.88;;;27.95;nan
69245;BME280;56357;52.304;4.870;2022-09-13T16:25:43;101230.44;;;28.57;nan
69245;BME280;56357;52.304;4.870;2022-09-13T16:28:17;101247.88;;;27.24;nan
69245;BME280;56357;52.304;4.870;2022-09-13T16:30:45;101245.31;;;26.49;nan
69245;BME280;56357;52.304;4.870;2022-09-13T16:33:12;101237.28;;;26.12;nan
69245;BME280;56357;52.304;4.870;2022-09-13T16:35:38;101233.53;;;26.03;nan
69245;BME280;56357;52.304;4.870;2022-09-13T16:38:05;101243.81;;;26.12;nan
69245;BME280;56357;52.304;4.870;2022-09-13T16:40:31;101236.31;;;26.56;nan